sensor_id;sensor_type;location;lat;lon;timestamp;temperature;humidity
21778;DHT22;11050;52.222;20.916;2023-07-08T00:00:45;16.20;90.00
21778;DHT22;11050;52.222;20.916;2023-07-08T00:03:13;16.20;90.20
21778;DHT22;11050;52.222;20.916;2023-07-08T00:05:40;16.10;90.50
21778;DHT22;11050;52.222;20.916;2023-07-08T00:08:11;16.00;90.90
21778;DHT22;11050;52.222;20.916;2023-07-08T00:10:41;16.00;90.90
21778;DHT22;11050;52.222;20.916;2023-07-08T00:13:08;15.90;91.40
21778;DHT22;11050;52.222;20.916;2023-07-08T00:15:35;15.90;91.60
21778;DHT22;11050;52.222;20.916;2023-07-08T00:18:10;15.90;92.30
21778;DHT22;11050;52.222;20.916;2023-07-08T00:20:46;15.80;93.70
21778;DHT22;11050;52.222;20.916;2023-07-08T00:23:13;15.80;94.80
21778;DHT22;11050;52.222;20.916;2023-07-08T00:25:39;15.80;95.90
21778;DHT22;11050;52.222;20.916;2023-07-08T00:28:17;15.70;97.50
21778;DHT22;11050;52.222;20.916;2023-07-08T00:30:48;15.70;99.00
21778;DHT22;11050;52.222;20.916;2023-07-08T00:33:14;15.70;99.90
21778;DHT22;11050;52.222;20.916;2023-07-08T00:35:41;15.60;99.90
21778;DHT22;11050;52.222;20.916;2023-07-08T00:43:34;15.50;99.90
21778;DHT22;11050;52.222;20.916;2023-07-08T00:48:52;15.50;99.90
21778;DHT22;11050;52.222;20.916;2023-07-08T00:51:21;15.40;99.90
21778;DHT22;11050;52.222;20.916;2023-07-08T00:53:48;15.40;99.90
21778;DHT22;11050;52.222;20.916;2023-07-08T00:59:29;15.30;99.90
21778;DHT22;11050;52.222;20.916;2023-07-08T01:02:02;15.30;99.90
21778;DHT22;11050;52.222;20.916;2023-07-08T01:04:34;15.30;99.90
21778;DHT22;11050;52.222;20.916;2023-07-08T01:07:04;15.20;99.90
21778;DHT22;11050;52.222;20.916;2023-07-08T01:09:40;15.20;99.90
21778;DHT22;11050;52.222;20.916;2023-07-08T01:12:14;15.20;99.90
21778;DHT22;11050;52.222;20.916;2023-07-08T01:14:44;15.20;99.90
21778;DHT22;11050;52.222;20.916;2023-07-08T01:17:11;15.10;99.90
21778;DHT22;11050;52.222;20.916;2023-07-08T01:19:40;15.10;99.90
21778;DHT22;11050;52.222;20.916;2023-07-08T01:22:08;15.10;99.90
21778;DHT22;11050;52.222;20.916;2023-07-08T01:24:39;15.00;99.90
21778;DHT22;11050;52.222;20.916;2023-07-08T01:27:10;15.00;99.90
21778;DHT22;11050;52.222;20.916;2023-07-08T01:29:38;14.90;99.90
21778;DHT22;11050;52.222;20.916;2023-07-08T01:32:05;14.90;99.90
21778;DHT22;11050;52.222;20.916;2023-07-08T01:34:34;14.90;99.90
21778;DHT22;11050;52.222;20.916;2023-07-08T01:37:04;14.90;99.90
21778;DHT22;11050;52.222;20.916;2023-07-08T01:39:32;14.80;99.90
21778;DHT22;11050;52.222;20.916;2023-07-08T01:41:58;14.80;99.90
21778;DHT22;11050;52.222;20.916;2023-07-08T01:44:31;14.80;99.90
21778;DHT22;11050;52.222;20.916;2023-07-08T01:49:37;14.80;99.90
21778;DHT22;11050;52.222;20.916;2023-07-08T01:52:06;14.70;99.90
21778;DHT22;11050;52.222;20.916;2023-07-08T01:54:33;14.70;99.90
21778;DHT22;11050;52.222;20.916;2023-07-08T01:56:58;14.60;99.90
21778;DHT22;11050;52.222;20.916;2023-07-08T01:59:26;14.60;99.90
21778;DHT22;11050;52.222;20.916;2023-07-08T02:01:51;14.60;99.90
21778;DHT22;11050;52.222;20.916;2023-07-08T02:04:24;14.50;99.90
21778;DHT22;11050;52.222;20.916;2023-07-08T02:06:59;14.50;99.90
21778;DHT22;11050;52.222;20.916;2023-07-08T02:09:26;14.50;99.90
21778;DHT22;11050;52.222;20.916;2023-07-08T02:11:53;14.50;99.90
21778;DHT22;11050;52.222;20.916;2023-07-08T02:14:19;14.50;99.90
21778;DHT22;11050;52.222;20.916;2023-07-08T02:16:45;14.50;99.90
21778;DHT22;11050;52.222;20.916;2023-07-08T02:19:11;14.40;99.90
21778;DHT22;11050;52.222;20.916;2023-07-08T02:21:38;14.40;99.90
21778;DHT22;11050;52.222;20.916;2023-07-08T02:24:04;14.40;99.90
21778;DHT22;11050;52.222;20.916;2023-07-08T02:26:30;14.40;99.90
21778;DHT22;11050;52.222;20.916;2023-07-08T02:29:00;14.30;99.90
21778;DHT22;11050;52.222;20.916;2023-07-08T02:31:26;14.30;99.90
21778;DHT22;11050;52.222;20.916;2023-07-08T02:33:52;14.30;99.90
21778;DHT22;11050;52.222;20.916;2023-07-08T02:36:19;14.30;99.90
21778;DHT22;11050;52.222;20.916;2023-07-08T02:38:45;14.30;99.90
21778;DHT22;11050;52.222;20.916;2023-07-08T02:41:11;14.30;99.90
21778;DHT22;11050;52.222;20.916;2023-07-08T02:43:38;14.30;99.90
21778;DHT22;11050;52.222;20.916;2023-07-08T02:46:04;14.20;99.90
21778;DHT22;11050;52.222;20.916;2023-07-08T02:48:30;14.30;99.90
21778;DHT22;11050;52.222;20.916;2023-07-08T02:51:00;14.30;99.90
21778;DHT22;11050;52.222;20.916;2023-07-08T02:53:29;14.30;99.90
21778;DHT22;11050;52.222;20.916;2023-07-08T02:55:56;14.30;99.90
21778;DHT22;11050;52.222;20.916;2023-07-08T02:58:22;14.30;99.90
21778;DHT22;11050;52.222;20.916;2023-07-08T03:00:52;14.30;99.90
21778;DHT22;11050;52.222;20.916;2023-07-08T03:03:18;14.30;99.90
21778;DHT22;11050;52.222;20.916;2023-07-08T03:05:44;14.30;99.90
21778;DHT22;11050;52.222;20.916;2023-07-08T03:08:09;14.30;99.90
21778;DHT22;11050;52.222;20.916;2023-07-08T03:10:35;14.40;99.90
21778;DHT22;11050;52.222;20.916;2023-07-08T03:13:00;14.40;99.90
21778;DHT22;11050;52.222;20.916;2023-07-08T03:15:26;14.40;99.90
21778;DHT22;11050;52.222;20.916;2023-07-08T03:17:52;14.40;99.90
21778;DHT22;11050;52.222;20.916;2023-07-08T03:20:22;14.40;99.90
21778;DHT22;11050;52.222;20.916;2023-07-08T03:22:48;14.50;99.90
21778;DHT22;11050;52.222;20.916;2023-07-08T03:25:14;14.50;99.90
21778;DHT22;11050;52.222;20.916;2023-07-08T03:27:39;14.50;99.90
21778;DHT22;11050;52.222;20.916;2023-07-08T03:30:05;14.60;99.90
21778;DHT22;11050;52.222;20.916;2023-07-08T03:32:33;14.60;99.90
21778;DHT22;11050;52.222;20.916;2023-07-08T03:34:58;14.60;99.90
21778;DHT22;11050;52.222;20.916;2023-07-08T03:37:26;14.70;99.90
21778;DHT22;11050;52.222;20.916;2023-07-08T03:39:52;14.70;99.90
21778;DHT22;11050;52.222;20.916;2023-07-08T03:42:18;14.80;99.90
21778;DHT22;11050;52.222;20.916;2023-07-08T03:44:43;14.90;99.90
21778;DHT22;11050;52.222;20.916;2023-07-08T03:47:09;14.90;99.90
21778;DHT22;11050;52.222;20.916;2023-07-08T03:49:34;15.00;99.90
21778;DHT22;11050;52.222;20.916;2023-07-08T03:52:00;15.10;99.90
21778;DHT22;11050;52.222;20.916;2023-07-08T03:54:26;15.20;99.90
21778;DHT22;11050;52.222;20.916;2023-07-08T03:56:52;15.30;99.90
21778;DHT22;11050;52.222;20.916;2023-07-08T03:59:18;15.40;99.90
21778;DHT22;11050;52.222;20.916;2023-07-08T04:01:44;15.40;99.90
21778;DHT22;11050;52.222;20.916;2023-07-08T04:04:14;15.50;99.90
21778;DHT22;11050;52.222;20.916;2023-07-08T04:06:41;15.60;99.90
21778;DHT22;11050;52.222;20.916;2023-07-08T04:09:07;15.70;99.90
21778;DHT22;11050;52.222;20.916;2023-07-08T04:11:33;15.90;99.90
21778;DHT22;11050;52.222;20.916;2023-07-08T04:13:59;15.90;99.90
21778;DHT22;11050;52.222;20.916;2023-07-08T04:16:30;16.00;99.90
21778;DHT22;11050;52.222;20.916;2023-07-08T04:19:03;16.20;99.90
21778;DHT22;11050;52.222;20.916;2023-07-08T04:21:29;16.30;99.90
21778;DHT22;11050;52.222;20.916;2023-07-08T04:23:55;16.40;99.90
21778;DHT22;11050;52.222;20.916;2023-07-08T04:26:21;16.50;99.90
21778;DHT22;11050;52.222;20.916;2023-07-08T04:28:47;16.50;99.90
21778;DHT22;11050;52.222;20.916;2023-07-08T04:31:12;16.70;99.90
21778;DHT22;11050;52.222;20.916;2023-07-08T04:33:38;16.70;99.90
21778;DHT22;11050;52.222;20.916;2023-07-08T04:36:05;16.80;99.90
21778;DHT22;11050;52.222;20.916;2023-07-08T04:38:37;16.90;99.90
21778;DHT22;11050;52.222;20.916;2023-07-08T04:41:02;17.00;99.90
21778;DHT22;11050;52.222;20.916;2023-07-08T04:43:28;17.10;99.90
21778;DHT22;11050;52.222;20.916;2023-07-08T04:45:55;17.20;99.90
21778;DHT22;11050;52.222;20.916;2023-07-08T04:48:22;17.30;99.90
21778;DHT22;11050;52.222;20.916;2023-07-08T04:50:51;17.40;99.90
21778;DHT22;11050;52.222;20.916;2023-07-08T04:53:17;17.50;99.90
21778;DHT22;11050;52.222;20.916;2023-07-08T04:55:55;17.60;99.90
21778;DHT22;11050;52.222;20.916;2023-07-08T04:58:22;17.70;99.90
21778;DHT22;11050;52.222;20.916;2023-07-08T05:00:48;17.80;99.90
21778;DHT22;11050;52.222;20.916;2023-07-08T05:03:13;17.90;99.90
21778;DHT22;11050;52.222;20.916;2023-07-08T05:05:39;18.00;99.90
21778;DHT22;11050;52.222;20.916;2023-07-08T05:08:06;18.10;99.90
21778;DHT22;11050;52.222;20.916;2023-07-08T05:10:33;18.20;99.90
21778;DHT22;11050;52.222;20.916;2023-07-08T05:13:00;18.30;99.90
21778;DHT22;11050;52.222;20.916;2023-07-08T05:15:26;18.40;99.90
21778;DHT22;11050;52.222;20.916;2023-07-08T05:17:51;18.60;99.90
21778;DHT22;11050;52.222;20.916;2023-07-08T05:20:18;18.70;99.90
21778;DHT22;11050;52.222;20.916;2023-07-08T05:22:45;18.80;99.90
21778;DHT22;11050;52.222;20.916;2023-07-08T05:25:12;18.90;99.90
21778;DHT22;11050;52.222;20.916;2023-07-08T05:27:38;19.00;99.90
21778;DHT22;11050;52.222;20.916;2023-07-08T05:30:05;19.10;99.90
21778;DHT22;11050;52.222;20.916;2023-07-08T05:32:32;19.20;99.30
21778;DHT22;11050;52.222;20.916;2023-07-08T05:34:58;19.30;98.30
21778;DHT22;11050;52.222;20.916;2023-07-08T05:37:24;19.50;97.70
21778;DHT22;11050;52.222;20.916;2023-07-08T05:39:54;19.60;96.80
21778;DHT22;11050;52.222;20.916;2023-07-08T05:42:23;19.70;96.20
21778;DHT22;11050;52.222;20.916;2023-07-08T05:44:49;19.80;95.10
21778;DHT22;11050;52.222;20.916;2023-07-08T05:47:17;19.90;95.00
21778;DHT22;11050;52.222;20.916;2023-07-08T05:49:43;20.00;94.00
21778;DHT22;11050;52.222;20.916;2023-07-08T05:52:09;20.10;93.50
21778;DHT22;11050;52.222;20.916;2023-07-08T05:54:37;20.20;92.50
21778;DHT22;11050;52.222;20.916;2023-07-08T05:57:04;20.30;92.10
21778;DHT22;11050;52.222;20.916;2023-07-08T05:59:31;20.40;91.00
21778;DHT22;11050;52.222;20.916;2023-07-08T06:01:57;20.60;88.90
21778;DHT22;11050;52.222;20.916;2023-07-08T06:04:22;20.70;89.00
21778;DHT22;11050;52.222;20.916;2023-07-08T06:06:48;20.80;88.60
21778;DHT22;11050;52.222;20.916;2023-07-08T06:09:14;20.90;86.00
21778;DHT22;11050;52.222;20.916;2023-07-08T06:11:40;21.00;84.00
21778;DHT22;11050;52.222;20.916;2023-07-08T06:14:05;21.10;83.30
21778;DHT22;11050;52.222;20.916;2023-07-08T06:16:31;21.20;83.10
21778;DHT22;11050;52.222;20.916;2023-07-08T06:18:57;21.30;81.20
21778;DHT22;11050;52.222;20.916;2023-07-08T06:21:24;21.40;80.90
21778;DHT22;11050;52.222;20.916;2023-07-08T06:23:49;21.50;79.10
21778;DHT22;11050;52.222;20.916;2023-07-08T06:26:15;21.60;76.30
21778;DHT22;11050;52.222;20.916;2023-07-08T06:28:41;21.80;75.50
21778;DHT22;11050;52.222;20.916;2023-07-08T06:31:06;21.90;74.80
21778;DHT22;11050;52.222;20.916;2023-07-08T06:33:32;21.90;73.50
21778;DHT22;11050;52.222;20.916;2023-07-08T06:35:58;22.10;72.80
21778;DHT22;11050;52.222;20.916;2023-07-08T06:38:24;22.20;71.70
21778;DHT22;11050;52.222;20.916;2023-07-08T06:40:49;22.30;71.70
21778;DHT22;11050;52.222;20.916;2023-07-08T06:43:15;22.40;70.30
21778;DHT22;11050;52.222;20.916;2023-07-08T06:45:41;22.50;70.00
21778;DHT22;11050;52.222;20.916;2023-07-08T06:48:09;22.60;68.30
21778;DHT22;11050;52.222;20.916;2023-07-08T06:50:35;22.60;68.90
21778;DHT22;11050;52.222;20.916;2023-07-08T06:53:00;22.80;69.00
21778;DHT22;11050;52.222;20.916;2023-07-08T06:55:26;22.80;67.70
21778;DHT22;11050;52.222;20.916;2023-07-08T06:57:52;22.90;66.70
21778;DHT22;11050;52.222;20.916;2023-07-08T07:00:17;23.00;65.30
21778;DHT22;11050;52.222;20.916;2023-07-08T07:02:43;23.10;64.90
21778;DHT22;11050;52.222;20.916;2023-07-08T07:05:09;23.20;64.60
21778;DHT22;11050;52.222;20.916;2023-07-08T07:07:35;23.30;62.00
21778;DHT22;11050;52.222;20.916;2023-07-08T07:10:01;23.40;61.50
21778;DHT22;11050;52.222;20.916;2023-07-08T07:12:28;23.50;61.90
21778;DHT22;11050;52.222;20.916;2023-07-08T07:14:54;23.60;58.80
21778;DHT22;11050;52.222;20.916;2023-07-08T07:17:21;23.80;59.30
21778;DHT22;11050;52.222;20.916;2023-07-08T07:19:48;23.80;58.20
21778;DHT22;11050;52.222;20.916;2023-07-08T07:22:14;23.90;58.20
21778;DHT22;11050;52.222;20.916;2023-07-08T07:24:41;24.00;58.80
21778;DHT22;11050;52.222;20.916;2023-07-08T07:27:08;24.10;57.60
21778;DHT22;11050;52.222;20.916;2023-07-08T07:29:40;24.10;56.90
21778;DHT22;11050;52.222;20.916;2023-07-08T07:32:11;24.30;56.00
21778;DHT22;11050;52.222;20.916;2023-07-08T07:34:38;24.30;56.10
21778;DHT22;11050;52.222;20.916;2023-07-08T07:37:15;24.40;55.40
21778;DHT22;11050;52.222;20.916;2023-07-08T07:39:42;24.50;56.00
21778;DHT22;11050;52.222;20.916;2023-07-08T07:42:09;24.50;55.40
21778;DHT22;11050;52.222;20.916;2023-07-08T07:44:36;24.60;55.20
21778;DHT22;11050;52.222;20.916;2023-07-08T07:47:02;24.70;54.20
21778;DHT22;11050;52.222;20.916;2023-07-08T07:49:29;24.80;52.40
21778;DHT22;11050;52.222;20.916;2023-07-08T07:51:54;24.90;51.40
21778;DHT22;11050;52.222;20.916;2023-07-08T07:54:21;24.90;51.30
21778;DHT22;11050;52.222;20.916;2023-07-08T07:56:46;25.00;51.20
21778;DHT22;11050;52.222;20.916;2023-07-08T07:59:12;25.00;52.80
21778;DHT22;11050;52.222;20.916;2023-07-08T08:01:37;25.10;52.50
21778;DHT22;11050;52.222;20.916;2023-07-08T08:04:04;25.30;51.60
21778;DHT22;11050;52.222;20.916;2023-07-08T08:06:29;25.30;50.90
21778;DHT22;11050;52.222;20.916;2023-07-08T08:08:55;25.40;49.50
21778;DHT22;11050;52.222;20.916;2023-07-08T08:11:23;25.50;49.50
21778;DHT22;11050;52.222;20.916;2023-07-08T08:13:51;25.50;49.60
21778;DHT22;11050;52.222;20.916;2023-07-08T08:16:17;25.60;49.80
21778;DHT22;11050;52.222;20.916;2023-07-08T08:18:43;25.60;49.90
21778;DHT22;11050;52.222;20.916;2023-07-08T08:21:08;25.70;50.20
21778;DHT22;11050;52.222;20.916;2023-07-08T08:23:34;25.80;50.00
21778;DHT22;11050;52.222;20.916;2023-07-08T08:25:59;25.90;50.70
21778;DHT22;11050;52.222;20.916;2023-07-08T08:28:25;26.00;49.10
21778;DHT22;11050;52.222;20.916;2023-07-08T08:30:51;26.00;48.80
21778;DHT22;11050;52.222;20.916;2023-07-08T08:33:18;26.10;50.30
21778;DHT22;11050;52.222;20.916;2023-07-08T08:35:45;26.20;50.10
21778;DHT22;11050;52.222;20.916;2023-07-08T08:38:11;26.30;49.30
21778;DHT22;11050;52.222;20.916;2023-07-08T08:40:37;26.40;48.10
21778;DHT22;11050;52.222;20.916;2023-07-08T08:43:34;26.40;46.70
21778;DHT22;11050;52.222;20.916;2023-07-08T08:46:04;26.50;46.60
21778;DHT22;11050;52.222;20.916;2023-07-08T08:48:43;26.50;46.70
21778;DHT22;11050;52.222;20.916;2023-07-08T08:51:17;26.50;46.90
21778;DHT22;11050;52.222;20.916;2023-07-08T08:53:44;26.50;46.50
21778;DHT22;11050;52.222;20.916;2023-07-08T08:56:20;26.60;46.30
21778;DHT22;11050;52.222;20.916;2023-07-08T09:01:33;26.80;45.90
21778;DHT22;11050;52.222;20.916;2023-07-08T09:04:03;26.90;45.30
21778;DHT22;11050;52.222;20.916;2023-07-08T09:06:36;27.00;44.90
21778;DHT22;11050;52.222;20.916;2023-07-08T09:09:15;27.10;44.80
21778;DHT22;11050;52.222;20.916;2023-07-08T09:12:16;27.20;45.30
21778;DHT22;11050;52.222;20.916;2023-07-08T09:14:46;27.40;44.80
21778;DHT22;11050;52.222;20.916;2023-07-08T09:20:19;27.50;42.90
21778;DHT22;11050;52.222;20.916;2023-07-08T09:23:03;27.50;43.50
21778;DHT22;11050;52.222;20.916;2023-07-08T09:25:57;27.60;43.40
21778;DHT22;11050;52.222;20.916;2023-07-08T09:28:40;27.60;43.10
21778;DHT22;11050;52.222;20.916;2023-07-08T09:34:17;27.90;42.60
21778;DHT22;11050;52.222;20.916;2023-07-08T09:36:48;28.00;42.30
21778;DHT22;11050;52.222;20.916;2023-07-08T09:39:17;28.20;41.90
21778;DHT22;11050;52.222;20.916;2023-07-08T09:41:48;28.10;41.70
21778;DHT22;11050;52.222;20.916;2023-07-08T09:44:22;28.20;41.80
21778;DHT22;11050;52.222;20.916;2023-07-08T09:46:52;28.10;41.80
21778;DHT22;11050;52.222;20.916;2023-07-08T09:49:24;28.10;42.30
21778;DHT22;11050;52.222;20.916;2023-07-08T09:51:53;28.00;42.00
21778;DHT22;11050;52.222;20.916;2023-07-08T09:54:21;28.00;41.90
21778;DHT22;11050;52.222;20.916;2023-07-08T09:57:11;28.10;42.00
21778;DHT22;11050;52.222;20.916;2023-07-08T09:59:56;28.20;42.00
21778;DHT22;11050;52.222;20.916;2023-07-08T10:04:58;28.10;41.80
21778;DHT22;11050;52.222;20.916;2023-07-08T10:07:29;28.10;41.30
21778;DHT22;11050;52.222;20.916;2023-07-08T10:10:01;28.20;41.30
21778;DHT22;11050;52.222;20.916;2023-07-08T10:12:32;28.20;41.30
21778;DHT22;11050;52.222;20.916;2023-07-08T10:15:05;28.30;40.30
21778;DHT22;11050;52.222;20.916;2023-07-08T10:17:42;28.40;41.40
21778;DHT22;11050;52.222;20.916;2023-07-08T10:20:11;28.60;40.30
21778;DHT22;11050;52.222;20.916;2023-07-08T10:22:42;28.60;39.30
21778;DHT22;11050;52.222;20.916;2023-07-08T10:28:44;28.30;40.40
21778;DHT22;11050;52.222;20.916;2023-07-08T10:31:32;28.00;41.00
21778;DHT22;11050;52.222;20.916;2023-07-08T10:34:17;28.10;41.20
21778;DHT22;11050;52.222;20.916;2023-07-08T10:40:10;28.50;40.30
21778;DHT22;11050;52.222;20.916;2023-07-08T10:43:02;28.80;39.40
21778;DHT22;11050;52.222;20.916;2023-07-08T10:51:26;29.10;38.40
21778;DHT22;11050;52.222;20.916;2023-07-08T10:56:54;29.30;39.10
21778;DHT22;11050;52.222;20.916;2023-07-08T10:59:44;29.60;38.20
21778;DHT22;11050;52.222;20.916;2023-07-08T11:05:06;30.30;37.20
21778;DHT22;11050;52.222;20.916;2023-07-08T11:07:45;30.40;37.20
21778;DHT22;11050;52.222;20.916;2023-07-08T11:10:20;30.50;37.10
21778;DHT22;11050;52.222;20.916;2023-07-08T11:12:59;30.50;36.20
21778;DHT22;11050;52.222;20.916;2023-07-08T11:15:36;30.30;36.70
21778;DHT22;11050;52.222;20.916;2023-07-08T11:18:32;30.30;37.70
21778;DHT22;11050;52.222;20.916;2023-07-08T11:21:18;30.50;37.40
21778;DHT22;11050;52.222;20.916;2023-07-08T11:26:33;30.80;36.20
21778;DHT22;11050;52.222;20.916;2023-07-08T11:29:37;31.00;35.60
21778;DHT22;11050;52.222;20.916;2023-07-08T11:32:13;31.00;36.00
21778;DHT22;11050;52.222;20.916;2023-07-08T11:34:43;30.90;35.50
21778;DHT22;11050;52.222;20.916;2023-07-08T11:37:13;31.00;36.10
21778;DHT22;11050;52.222;20.916;2023-07-08T11:39:45;31.10;35.50
21778;DHT22;11050;52.222;20.916;2023-07-08T11:42:23;31.20;35.10
21778;DHT22;11050;52.222;20.916;2023-07-08T11:45:00;31.30;36.40
21778;DHT22;11050;52.222;20.916;2023-07-08T11:50:23;31.10;35.20
21778;DHT22;11050;52.222;20.916;2023-07-08T11:53:07;31.00;35.20
21778;DHT22;11050;52.222;20.916;2023-07-08T11:55:56;30.80;35.00
21778;DHT22;11050;52.222;20.916;2023-07-08T11:58:24;30.50;35.70
21778;DHT22;11050;52.222;20.916;2023-07-08T12:01:01;30.30;36.10
21778;DHT22;11050;52.222;20.916;2023-07-08T12:03:47;30.20;35.60
21778;DHT22;11050;52.222;20.916;2023-07-08T12:08:57;30.10;36.30
21778;DHT22;11050;52.222;20.916;2023-07-08T12:11:27;30.10;36.30
21778;DHT22;11050;52.222;20.916;2023-07-08T12:13:59;30.10;36.60
21778;DHT22;11050;52.222;20.916;2023-07-08T12:16:29;30.00;36.40
21778;DHT22;11050;52.222;20.916;2023-07-08T12:18:58;30.00;36.60
21778;DHT22;11050;52.222;20.916;2023-07-08T12:21:27;29.90;37.80
21778;DHT22;11050;52.222;20.916;2023-07-08T12:23:53;29.90;36.40
21778;DHT22;11050;52.222;20.916;2023-07-08T12:26:21;29.80;37.10
21778;DHT22;11050;52.222;20.916;2023-07-08T12:28:50;29.80;36.70
21778;DHT22;11050;52.222;20.916;2023-07-08T12:31:18;29.80;36.70
21778;DHT22;11050;52.222;20.916;2023-07-08T12:33:46;29.70;36.90
21778;DHT22;11050;52.222;20.916;2023-07-08T12:36:21;29.70;37.20
21778;DHT22;11050;52.222;20.916;2023-07-08T12:38:55;29.80;37.00
21778;DHT22;11050;52.222;20.916;2023-07-08T12:41:30;30.30;36.60
21778;DHT22;11050;52.222;20.916;2023-07-08T12:43:59;30.80;35.80
21778;DHT22;11050;52.222;20.916;2023-07-08T12:46:26;31.30;35.30
21778;DHT22;11050;52.222;20.916;2023-07-08T12:48:54;31.60;34.30
21778;DHT22;11050;52.222;20.916;2023-07-08T12:51:23;31.70;33.10
21778;DHT22;11050;52.222;20.916;2023-07-08T12:53:52;31.60;32.90
21778;DHT22;11050;52.222;20.916;2023-07-08T12:56:20;31.70;33.00
21778;DHT22;11050;52.222;20.916;2023-07-08T12:58:56;31.70;33.60
21778;DHT22;11050;52.222;20.916;2023-07-08T13:01:26;32.00;33.20
21778;DHT22;11050;52.222;20.916;2023-07-08T13:03:59;32.10;32.70
21778;DHT22;11050;52.222;20.916;2023-07-08T13:06:30;32.40;31.60
21778;DHT22;11050;52.222;20.916;2023-07-08T13:09:07;32.70;31.60
21778;DHT22;11050;52.222;20.916;2023-07-08T13:11:41;33.10;31.20
21778;DHT22;11050;52.222;20.916;2023-07-08T13:14:07;33.60;30.10
21778;DHT22;11050;52.222;20.916;2023-07-08T13:16:34;33.90;30.50
21778;DHT22;11050;52.222;20.916;2023-07-08T13:19:01;34.50;29.90
21778;DHT22;11050;52.222;20.916;2023-07-08T13:21:29;34.70;29.50
21778;DHT22;11050;52.222;20.916;2023-07-08T13:23:56;34.90;28.90
21778;DHT22;11050;52.222;20.916;2023-07-08T13:26:26;34.80;28.70
21778;DHT22;11050;52.222;20.916;2023-07-08T13:29:20;34.60;28.30
21778;DHT22;11050;52.222;20.916;2023-07-08T13:31:49;34.50;28.60
21778;DHT22;11050;52.222;20.916;2023-07-08T13:34:20;34.50;29.20
21778;DHT22;11050;52.222;20.916;2023-07-08T13:36:51;34.60;29.50
21778;DHT22;11050;52.222;20.916;2023-07-08T13:39:29;34.60;29.00
21778;DHT22;11050;52.222;20.916;2023-07-08T13:41:59;35.00;28.80
21778;DHT22;11050;52.222;20.916;2023-07-08T13:44:26;35.10;27.60
21778;DHT22;11050;52.222;20.916;2023-07-08T13:49:30;35.10;27.30
21778;DHT22;11050;52.222;20.916;2023-07-08T13:54:40;34.90;27.70
21778;DHT22;11050;52.222;20.916;2023-07-08T13:57:11;34.90;28.80
21778;DHT22;11050;52.222;20.916;2023-07-08T13:59:37;35.00;27.90
21778;DHT22;11050;52.222;20.916;2023-07-08T14:02:18;35.30;27.70
21778;DHT22;11050;52.222;20.916;2023-07-08T14:04:50;35.60;27.40
21778;DHT22;11050;52.222;20.916;2023-07-08T14:07:23;35.80;26.80
21778;DHT22;11050;52.222;20.916;2023-07-08T14:09:51;35.60;27.00
21778;DHT22;11050;52.222;20.916;2023-07-08T14:12:18;35.30;26.90
21778;DHT22;11050;52.222;20.916;2023-07-08T14:14:43;34.80;27.40
21778;DHT22;11050;52.222;20.916;2023-07-08T14:17:12;34.40;27.80
21778;DHT22;11050;52.222;20.916;2023-07-08T14:19:44;34.30;28.00
21778;DHT22;11050;52.222;20.916;2023-07-08T14:24:42;34.30;27.90
21778;DHT22;11050;52.222;20.916;2023-07-08T14:27:09;34.10;27.80
21778;DHT22;11050;52.222;20.916;2023-07-08T14:33:19;33.90;29.00
21778;DHT22;11050;52.222;20.916;2023-07-08T14:35:44;34.00;29.50
21778;DHT22;11050;52.222;20.916;2023-07-08T14:38:12;34.00;30.40
21778;DHT22;11050;52.222;20.916;2023-07-08T14:40:41;33.90;29.30
21778;DHT22;11050;52.222;20.916;2023-07-08T14:43:21;33.70;29.40
21778;DHT22;11050;52.222;20.916;2023-07-08T14:45:54;33.60;28.90
21778;DHT22;11050;52.222;20.916;2023-07-08T14:48:23;33.40;29.80
21778;DHT22;11050;52.222;20.916;2023-07-08T14:50:49;33.30;30.00
21778;DHT22;11050;52.222;20.916;2023-07-08T14:53:16;33.30;30.50
21778;DHT22;11050;52.222;20.916;2023-07-08T14:55:45;33.60;29.60
21778;DHT22;11050;52.222;20.916;2023-07-08T15:00:52;34.60;29.60
21778;DHT22;11050;52.222;20.916;2023-07-08T15:03:20;35.20;28.10
21778;DHT22;11050;52.222;20.916;2023-07-08T15:05:46;35.80;27.00
21778;DHT22;11050;52.222;20.916;2023-07-08T15:08:12;36.40;26.20
21778;DHT22;11050;52.222;20.916;2023-07-08T15:10:47;36.90;26.60
21778;DHT22;11050;52.222;20.916;2023-07-08T15:13:15;37.40;25.40
21778;DHT22;11050;52.222;20.916;2023-07-08T15:15:45;37.90;24.70
21778;DHT22;11050;52.222;20.916;2023-07-08T15:18:16;38.00;24.70
21778;DHT22;11050;52.222;20.916;2023-07-08T15:20:43;38.30;24.20
21778;DHT22;11050;52.222;20.916;2023-07-08T15:23:10;38.40;24.50
21778;DHT22;11050;52.222;20.916;2023-07-08T15:25:38;38.60;24.30
21778;DHT22;11050;52.222;20.916;2023-07-08T15:28:15;38.80;24.00
21778;DHT22;11050;52.222;20.916;2023-07-08T15:30:41;39.00;23.70
21778;DHT22;11050;52.222;20.916;2023-07-08T15:33:12;38.80;23.60
21778;DHT22;11050;52.222;20.916;2023-07-08T15:35:40;38.80;23.30
21778;DHT22;11050;52.222;20.916;2023-07-08T15:38:07;38.80;23.60
21778;DHT22;11050;52.222;20.916;2023-07-08T15:40:34;38.90;24.00
21778;DHT22;11050;52.222;20.916;2023-07-08T15:43:03;39.10;23.50
21778;DHT22;11050;52.222;20.916;2023-07-08T15:45:33;39.30;23.70
21778;DHT22;11050;52.222;20.916;2023-07-08T15:48:00;39.40;23.20
21778;DHT22;11050;52.222;20.916;2023-07-08T15:50:27;39.40;22.70
21778;DHT22;11050;52.222;20.916;2023-07-08T15:52:54;39.40;22.90
21778;DHT22;11050;52.222;20.916;2023-07-08T15:55:25;39.70;23.70
21778;DHT22;11050;52.222;20.916;2023-07-08T15:58:06;39.60;22.90
21778;DHT22;11050;52.222;20.916;2023-07-08T16:00:38;39.50;22.80
21778;DHT22;11050;52.222;20.916;2023-07-08T16:03:19;39.40;23.70
21778;DHT22;11050;52.222;20.916;2023-07-08T16:05:49;39.40;23.10
21778;DHT22;11050;52.222;20.916;2023-07-08T16:08:15;39.30;23.70
21778;DHT22;11050;52.222;20.916;2023-07-08T16:10:41;39.30;24.40
21778;DHT22;11050;52.222;20.916;2023-07-08T16:13:10;39.40;23.60
21778;DHT22;11050;52.222;20.916;2023-07-08T16:15:37;39.40;23.90
21778;DHT22;11050;52.222;20.916;2023-07-08T16:18:10;39.50;23.60
21778;DHT22;11050;52.222;20.916;2023-07-08T16:20:39;39.50;22.70
21778;DHT22;11050;52.222;20.916;2023-07-08T16:23:05;39.70;22.40
21778;DHT22;11050;52.222;20.916;2023-07-08T16:25:37;39.70;22.40
21778;DHT22;11050;52.222;20.916;2023-07-08T16:28:15;39.80;22.60
21778;DHT22;11050;52.222;20.916;2023-07-08T16:30:55;39.80;22.70
21778;DHT22;11050;52.222;20.916;2023-07-08T16:33:21;39.80;22.70
21778;DHT22;11050;52.222;20.916;2023-07-08T16:35:47;39.80;22.60